Time;durP1;ratioP1;P1;durP2;ratioP2;P2;SDS_P1;SDS_P2;PMS_P1;PMS_P2;Temp;Humidity;BMP_temperature;BMP_pressure;BME280_temperature;BME280_humidity;BME280_pressure;Samples;Min_cycle;Max_cycle;Signal;HPM_P1;HPM_P2
2022/11/30 00:00:30;;;;;;;45.28;24.98;;;;;;;;;;5044717;28;20492;-92
2022/11/30 00:02:56;;;;;;;45.40;24.83;;;;;;;;;;5052775;28;20029;-91
2022/11/30 00:05:23;;;;;;;46.03;25.48;;;;;;;;;;5053324;28;20462;-91
2022/11/30 00:07:49;;;;;;;44.33;24.42;;;;;;;;;;5047465;28;20028;-91
2022/11/30 00:10:16;;;;;;;40.40;24.42;;;;;;;;;;5053422;28;20028;-92
2022/11/30 00:12:42;;;;;;;42.88;24.25;;;;;;;;;;5054242;28;20063;-91
2022/11/30 00:15:12;;;;;;;39.08;23.10;;;;;;;;;;5050380;28;20081;-92
2022/11/30 00:17:42;;;;;;;43.92;24.55;;;;;;;;;;5046056;28;20029;-92
2022/11/30 00:20:08;;;;;;;39.67;23.10;;;;;;;;;;5052560;28;20025;-90
2022/11/30 00:22:34;;;;;;;44.67;26.00;;;;;;;;;;5045584;28;20033;-91
2022/11/30 00:25:02;;;;;;;44.65;24.88;;;;;;;;;;5052540;28;20055;-92
2022/11/30 00:27:28;;;;;;;41.60;24.77;;;;;;;;;;5036610;28;20055;-91
2022/11/30 00:29:55;;;;;;;42.53;25.70;;;;;;;;;;5053070;28;20052;-89
2022/11/30 00:32:21;;;;;;;42.78;24.60;;;;;;;;;;5052400;28;20497;-92
2022/11/30 00:34:48;;;;;;;47.22;25.92;;;;;;;;;;5053503;28;20052;-92
2022/11/30 00:37:14;;;;;;;45.47;25.95;;;;;;;;;;5050874;28;20487;-91
2022/11/30 00:39:40;;;;;;;51.20;28.00;;;;;;;;;;5045890;28;20021;-91
2022/11/30 00:42:06;;;;;;;46.38;26.70;;;;;;;;;;5052638;28;20037;-90
2022/11/30 00:44:32;;;;;;;44.67;26.30;;;;;;;;;;5044848;28;20079;-91
2022/11/30 00:46:58;;;;;;;47.25;25.63;;;;;;;;;;5052363;28;20048;-91
2022/11/30 00:49:24;;;;;;;44.63;24.48;;;;;;;;;;5052793;28;20469;-92
2022/11/30 00:51:51;;;;;;;44.05;25.48;;;;;;;;;;5047746;28;20062;-92
2022/11/30 00:54:17;;;;;;;41.50;23.58;;;;;;;;;;5052691;28;20481;-91
2022/11/30 00:56:43;;;;;;;49.65;26.67;;;;;;;;;;5046182;28;20063;-90
2022/11/30 00:59:09;;;;;;;45.25;26.45;;;;;;;;;;5052269;28;20037;-91
2022/11/30 01:01:35;;;;;;;46.83;27.40;;;;;;;;;;5045034;28;20040;-91
2022/11/30 01:04:01;;;;;;;52.88;28.17;;;;;;;;;;5052112;28;20017;-92
2022/11/30 01:06:28;;;;;;;53.35;29.00;;;;;;;;;;5047978;28;20131;-92
2022/11/30 01:08:54;;;;;;;54.65;30.83;;;;;;;;;;5056840;28;20466;-91
2022/11/30 01:11:21;;;;;;;51.67;29.10;;;;;;;;;;5055926;28;20075;-93
2022/11/30 01:13:47;;;;;;;58.60;30.35;;;;;;;;;;5050426;28;20497;-91
2022/11/30 01:16:14;;;;;;;62.17;32.42;;;;;;;;;;5055906;28;20025;-89
2022/11/30 01:18:41;;;;;;;58.50;30.88;;;;;;;;;;5049712;28;20481;-90
2022/11/30 01:21:08;;;;;;;59.05;30.45;;;;;;;;;;5056046;28;20103;-91
2022/11/30 01:23:35;;;;;;;56.15;28.50;;;;;;;;;;5048254;28;20389;-91
2022/11/30 01:26:01;;;;;;;54.58;29.10;;;;;;;;;;5055852;28;20028;-92
2022/11/30 01:28:27;;;;;;;52.03;27.73;;;;;;;;;;5056004;28;20021;-92
2022/11/30 01:31:01;;;;;;;49.70;27.83;;;;;;;;;;5055609;28;20171;-92
2022/11/30 01:33:27;;;;;;;57.08;29.52;;;;;;;;;;5055454;28;20029;-91
2022/11/30 01:36:04;;;;;;;57.80;31.40;;;;;;;;;;5055290;28;20055;-92
2022/11/30 01:38:56;;;;;;;48.67;26.77;;;;;;;;;;5056356;28;20116;-91
2022/11/30 01:41:26;;;;;;;50.05;28.15;;;;;;;;;;5052363;28;20049;-91
2022/11/30 01:43:57;;;;;;;46.90;26.95;;;;;;;;;;5050847;28;20032;-91
2022/11/30 01:46:28;;;;;;;47.05;26.35;;;;;;;;;;5055422;28;20036;-91
2022/11/30 01:48:56;;;;;;;47.58;25.33;;;;;;;;;;5050923;28;20083;-90
2022/11/30 01:51:23;;;;;;;45.88;25.77;;;;;;;;;;5055073;28;20039;-91
2022/11/30 01:53:49;;;;;;;49.28;28.13;;;;;;;;;;5049464;28;20381;-91
2022/11/30 01:56:16;;;;;;;44.08;26.08;;;;;;;;;;5055318;28;20037;-91
2022/11/30 01:58:43;;;;;;;49.03;28.27;;;;;;;;;;5048960;28;20071;-90
2022/11/30 02:01:09;;;;;;;46.78;25.65;;;;;;;;;;5055407;28;20076;-89
2022/11/30 02:03:45;;;;;;;42.25;25.15;;;;;;;;;;5047880;28;20024;-89
2022/11/30 02:06:11;;;;;;;45.38;26.15;;;;;;;;;;5055288;28;20078;-90
2022/11/30 02:08:37;;;;;;;47.05;27.00;;;;;;;;;;5048145;28;20032;-90
2022/11/30 02:11:05;;;;;;;45.35;26.17;;;;;;;;;;5054725;28;20029;-91
2022/11/30 02:13:50;;;;;;;50.05;27.35;;;;;;;;;;5047193;28;20028;-90
2022/11/30 02:16:26;;;;;;;44.17;26.05;;;;;;;;;;5055830;28;20057;-90
2022/11/30 02:18:55;;;;;;;45.28;25.88;;;;;;;;;;5049283;28;20545;-92
2022/11/30 02:21:29;;;;;;;55.17;28.35;;;;;;;;;;5054203;28;20048;-91
2022/11/30 02:24:05;;;;;;;49.08;27.05;;;;;;;;;;5050014;28;20048;-90
2022/11/30 02:26:40;;;;;;;43.25;25.27;;;;;;;;;;5055294;28;20071;-91
2022/11/30 02:29:33;;;;;;;47.28;26.95;;;;;;;;;;5054215;28;20115;-90
2022/11/30 02:31:59;;;;;;;45.83;24.88;;;;;;;;;;5019715;28;20033;-91
2022/11/30 02:34:27;;;;;;;53.10;29.40;;;;;;;;;;5054322;28;20045;-91
2022/11/30 02:36:53;;;;;;;44.88;26.85;;;;;;;;;;5055000;28;20021;-91
2022/11/30 02:39:21;;;;;;;48.83;28.05;;;;;;;;;;5053566;28;20548;-90
2022/11/30 02:42:09;;;;;;;43.38;25.98;;;;;;;;;;5049182;28;20120;-90
2022/11/30 02:44:35;;;;;;;45.10;25.83;;;;;;;;;;5053936;28;20037;-89
2022/11/30 02:47:01;;;;;;;47.70;26.75;;;;;;;;;;5054236;28;20083;-91
2022/11/30 02:49:27;;;;;;;47.42;27.80;;;;;;;;;;5053893;28;20057;-90
2022/11/30 02:51:54;;;;;;;47.30;26.63;;;;;;;;;;5054120;28;20448;-90
2022/11/30 02:54:20;;;;;;;46.30;28.05;;;;;;;;;;5054870;28;20468;-90
2022/11/30 02:56:47;;;;;;;49.40;27.40;;;;;;;;;;5048434;28;20027;-90
2022/11/30 02:59:13;;;;;;;57.10;31.40;;;;;;;;;;5053397;28;20025;-91
2022/11/30 03:01:39;;;;;;;50.45;29.48;;;;;;;;;;5046780;28;20029;-90
2022/11/30 03:04:05;;;;;;;53.78;31.98;;;;;;;;;;5057481;28;20021;-89
2022/11/30 03:06:31;;;;;;;56.42;33.42;;;;;;;;;;5052523;28;20036;-90
2022/11/30 03:08:57;;;;;;;54.40;31.38;;;;;;;;;;5053944;28;20024;-91
2022/11/30 03:11:24;;;;;;;53.78;30.83;;;;;;;;;;5053416;28;20025;-91
2022/11/30 03:13:50;;;;;;;53.65;30.75;;;;;;;;;;5048758;28;20490;-90
2022/11/30 03:16:17;;;;;;;55.78;30.33;;;;;;;;;;5053471;28;20021;-90
2022/11/30 03:18:43;;;;;;;56.33;30.80;;;;;;;;;;5047477;28;20025;-91
2022/11/30 03:21:10;;;;;;;49.97;27.20;;;;;;;;;;5053650;28;20108;-89
2022/11/30 03:23:36;;;;;;;51.03;28.08;;;;;;;;;;5046324;28;20025;-90
2022/11/30 03:26:03;;;;;;;51.13;27.25;;;;;;;;;;5053449;28;20079;-90
2022/11/30 03:28:29;;;;;;;50.88;27.48;;;;;;;;;;5044637;28;20473;-91
2022/11/30 03:30:56;;;;;;;47.10;25.73;;;;;;;;;;5053262;28;20045;-90
2022/11/30 03:33:22;;;;;;;46.65;26.27;;;;;;;;;;5052994;28;20477;-89
2022/11/30 03:35:48;;;;;;;41.90;24.75;;;;;;;;;;5047616;28;20045;-91
2022/11/30 03:38:14;;;;;;;46.50;25.17;;;;;;;;;;5053368;28;20093;-91
2022/11/30 03:40:40;;;;;;;39.33;23.08;;;;;;;;;;5047007;28;20025;-91
2022/11/30 03:43:06;;;;;;;44.75;24.85;;;;;;;;;;5052864;28;20020;-91
2022/11/30 03:45:33;;;;;;;43.00;23.55;;;;;;;;;;5045605;28;20029;-92
2022/11/30 03:47:59;;;;;;;42.70;23.45;;;;;;;;;;5053166;28;20032;-91
2022/11/30 03:50:25;;;;;;;46.50;25.45;;;;;;;;;;5053237;28;20025;-92
2022/11/30 03:52:51;;;;;;;43.70;24.25;;;;;;;;;;5048152;28;20500;-91
2022/11/30 03:55:17;;;;;;;41.85;23.38;;;;;;;;;;5054226;28;20029;-90
2022/11/30 03:57:43;;;;;;;39.88;23.88;;;;;;;;;;5048057;28;20056;-91
2022/11/30 04:00:09;;;;;;;42.00;24.73;;;;;;;;;;5054106;28;20020;-92
2022/11/30 04:02:35;;;;;;;40.33;23.75;;;;;;;;;;5045832;28;20481;-90
2022/11/30 04:05:02;;;;;;;39.83;23.55;;;;;;;;;;5053063;28;20021;-90
2022/11/30 04:07:28;;;;;;;37.92;22.30;;;;;;;;;;5044564;28;20033;-91
2022/11/30 04:09:54;;;;;;;42.92;24.48;;;;;;;;;;5053005;28;20028;-91
2022/11/30 04:12:20;;;;;;;42.08;25.50;;;;;;;;;;5052935;28;20029;-91
2022/11/30 04:14:46;;;;;;;43.90;25.27;;;;;;;;;;5047016;28;20051;-91
2022/11/30 04:17:12;;;;;;;38.10;21.73;;;;;;;;;;5052672;28;20021;-92
2022/11/30 04:19:38;;;;;;;35.55;22.42;;;;;;;;;;5046093;28;20032;-92
2022/11/30 04:22:05;;;;;;;38.63;23.05;;;;;;;;;;5053532;28;20033;-91
2022/11/30 04:24:31;;;;;;;38.80;23.48;;;;;;;;;;5044840;28;20083;-91
2022/11/30 04:26:57;;;;;;;43.60;23.98;;;;;;;;;;5053590;28;20025;-91
2022/11/30 04:29:23;;;;;;;42.50;25.42;;;;;;;;;;5053184;28;20427;-92
2022/11/30 04:31:49;;;;;;;38.45;23.40;;;;;;;;;;5047890;28;20025;-92
2022/11/30 04:34:15;;;;;;;38.60;22.98;;;;;;;;;;5052673;28;20515;-90
2022/11/30 04:36:41;;;;;;;40.50;23.60;;;;;;;;;;5046438;28;20485;-91
2022/11/30 04:39:07;;;;;;;38.00;22.25;;;;;;;;;;5052609;28;20021;-91
2022/11/30 04:41:34;;;;;;;38.63;22.92;;;;;;;;;;5048820;28;20037;-92
2022/11/30 04:44:01;;;;;;;36.88;21.42;;;;;;;;;;5056784;28;20021;-91
2022/11/30 04:46:28;;;;;;;38.10;22.25;;;;;;;;;;5056375;28;20025;-92
2022/11/30 04:48:54;;;;;;;35.85;21.45;;;;;;;;;;5056089;28;20029;-91
2022/11/30 04:51:20;;;;;;;35.15;20.63;;;;;;;;;;5056177;28;20388;-91
2022/11/30 04:53:46;;;;;;;38.10;21.73;;;;;;;;;;5050599;28;20016;-90
2022/11/30 04:56:12;;;;;;;34.58;19.92;;;;;;;;;;5056013;28;20031;-92
2022/11/30 04:58:39;;;;;;;36.95;21.15;;;;;;;;;;5049364;28;20091;-92
2022/11/30 05:01:05;;;;;;;36.58;21.38;;;;;;;;;;5055721;28;20029;-90
2022/11/30 05:03:31;;;;;;;32.42;19.75;;;;;;;;;;5048480;28;20035;-92
2022/11/30 05:05:57;;;;;;;37.90;22.65;;;;;;;;;;5056329;28;20024;-91
2022/11/30 05:08:23;;;;;;;34.53;19.98;;;;;;;;;;5056082;28;20449;-92
2022/11/30 05:10:53;;;;;;;31.73;20.25;;;;;;;;;;5050609;28;20036;-92
2022/11/30 05:13:20;;;;;;;31.80;19.17;;;;;;;;;;5056092;28;20087;-91
2022/11/30 05:15:46;;;;;;;31.80;19.67;;;;;;;;;;5049795;28;20032;-91
2022/11/30 05:18:14;;;;;;;33.75;20.02;;;;;;;;;;5055957;28;20473;-90
2022/11/30 05:20:40;;;;;;;32.97;19.92;;;;;;;;;;5049290;28;20021;-92
2022/11/30 05:23:06;;;;;;;34.33;20.98;;;;;;;;;;5055386;28;20037;-92
2022/11/30 05:25:32;;;;;;;36.72;22.25;;;;;;;;;;5048424;28;20463;-91
2022/11/30 05:27:59;;;;;;;33.67;20.52;;;;;;;;;;5055559;28;20025;-91
2022/11/30 05:30:25;;;;;;;32.28;18.95;;;;;;;;;;5055346;28;20044;-91
2022/11/30 05:32:52;;;;;;;32.30;20.20;;;;;;;;;;5050513;28;20028;-90
2022/11/30 05:35:18;;;;;;;33.55;20.17;;;;;;;;;;5055749;28;20049;-90
2022/11/30 05:37:45;;;;;;;38.30;21.65;;;;;;;;;;5049683;28;20031;-92
2022/11/30 05:40:11;;;;;;;33.05;19.80;;;;;;;;;;5055641;28;20071;-92
2022/11/30 05:42:37;;;;;;;31.20;18.65;;;;;;;;;;5048458;28;20481;-91
2022/11/30 05:45:03;;;;;;;31.98;19.70;;;;;;;;;;5055142;28;20428;-92
2022/11/30 05:47:29;;;;;;;34.25;18.75;;;;;;;;;;5047485;28;20025;-91
2022/11/30 05:49:55;;;;;;;31.67;19.63;;;;;;;;;;5054841;28;20048;-91
2022/11/30 05:52:22;;;;;;;33.28;19.83;;;;;;;;;;5055793;28;20393;-91
2022/11/30 05:54:51;;;;;;;33.78;19.55;;;;;;;;;;5049695;28;20426;-89
2022/11/30 05:57:17;;;;;;;34.17;19.80;;;;;;;;;;5055257;28;20052;-90
2022/11/30 05:59:43;;;;;;;35.92;20.65;;;;;;;;;;5048653;28;20052;-91
2022/11/30 06:02:09;;;;;;;30.48;19.15;;;;;;;;;;5054784;28;20037;-91
2022/11/30 06:04:35;;;;;;;35.95;20.65;;;;;;;;;;5047838;28;20036;-91
2022/11/30 06:07:01;;;;;;;37.47;21.88;;;;;;;;;;5055057;28;20037;-91
2022/11/30 06:09:28;;;;;;;31.30;18.95;;;;;;;;;;5046828;28;20025;-91
2022/11/30 06:11:54;;;;;;;33.22;19.42;;;;;;;;;;5054935;28;20120;-91
2022/11/30 06:14:23;;;;;;;33.17;19.38;;;;;;;;;;5054865;28;20021;-90
2022/11/30 06:16:49;;;;;;;33.15;19.38;;;;;;;;;;5029569;28;20022;-91
2022/11/30 06:19:15;;;;;;;34.80;19.60;;;;;;;;;;5034528;28;20462;-92
2022/11/30 06:21:41;;;;;;;34.80;20.42;;;;;;;;;;5029032;28;20037;-92
2022/11/30 06:24:08;;;;;;;34.13;18.80;;;;;;;;;;5034729;28;20049;-92
2022/11/30 06:26:35;;;;;;;33.20;18.50;;;;;;;;;;5035417;28;20032;-91
2022/11/30 06:29:01;;;;;;;32.28;19.27;;;;;;;;;;5051543;28;20056;-91
2022/11/30 06:34:22;;;;;;;34.97;17.80;;;;;;;;;;4993382;28;20097;-90
2022/11/30 06:36:49;;;;;;;30.90;17.90;;;;;;;;;;4963345;28;20049;-91
2022/11/30 06:39:15;;;;;;;36.95;19.15;;;;;;;;;;4974446;28;20027;-89
2022/11/30 06:41:41;;;;;;;34.35;19.15;;;;;;;;;;5009694;28;20057;-89
2022/11/30 06:44:08;;;;;;;30.85;18.38;;;;;;;;;;5034049;28;20381;-88
2022/11/30 06:46:34;;;;;;;32.47;18.73;;;;;;;;;;5026932;28;20036;-90
2022/11/30 06:49:00;;;;;;;36.70;18.95;;;;;;;;;;5045264;28;20033;-87
2022/11/30 06:51:26;;;;;;;33.78;19.15;;;;;;;;;;5053118;28;20021;-88
2022/11/30 06:53:52;;;;;;;35.80;18.20;;;;;;;;;;5053363;28;20060;-88
2022/11/30 06:56:18;;;;;;;35.03;18.33;;;;;;;;;;5053293;28;20029;-88
2022/11/30 06:58:45;;;;;;;29.83;18.48;;;;;;;;;;5048337;28;20096;-89
2022/11/30 07:01:12;;;;;;;35.53;18.67;;;;;;;;;;5054417;28;20063;-88
2022/11/30 07:03:39;;;;;;;32.30;19.20;;;;;;;;;;5046322;28;20025;-88
2022/11/30 07:06:09;;;;;;;32.80;19.20;;;;;;;;;;5054411;28;20021;-88
2022/11/30 07:08:35;;;;;;;36.78;21.23;;;;;;;;;;5046386;28;20029;-88
2022/11/30 07:11:01;;;;;;;33.10;20.30;;;;;;;;;;5053859;28;20033;-90
2022/11/30 07:13:28;;;;;;;31.33;19.15;;;;;;;;;;5036917;28;20082;-88
2022/11/30 07:15:55;;;;;;;52.78;27.52;;;;;;;;;;5053145;28;20044;-90
2022/11/30 07:18:21;;;;;;;38.78;23.33;;;;;;;;;;5054226;28;20032;-93
2022/11/30 07:20:47;;;;;;;41.17;23.17;;;;;;;;;;5047844;28;20056;-90
2022/11/30 07:26:17;;;;;;;26.92;17.80;;;;;;;;;;5056624;28;20059;-92
2022/11/30 07:28:49;;;;;;;27.58;16.98;;;;;;;;;;5048657;28;20063;-92
2022/11/30 07:31:16;;;;;;;27.52;17.38;;;;;;;;;;5053957;28;20060;-91
2022/11/30 07:33:42;;;;;;;28.95;19.45;;;;;;;;;;5054186;28;20036;-88
2022/11/30 07:36:08;;;;;;;31.92;23.08;;;;;;;;;;5050179;28;20063;-88
2022/11/30 07:38:34;;;;;;;29.83;20.17;;;;;;;;;;5053369;28;20420;-88
2022/11/30 07:41:00;;;;;;;26.85;19.23;;;;;;;;;;5053774;28;20036;-93
2022/11/30 07:43:27;;;;;;;27.08;17.67;;;;;;;;;;5053422;28;20056;-88
2022/11/30 07:45:54;;;;;;;25.85;16.95;;;;;;;;;;5053095;28;20059;-92
2022/11/30 07:48:21;;;;;;;26.08;16.95;;;;;;;;;;5052744;28;20036;-89
2022/11/30 07:50:47;;;;;;;26.13;17.75;;;;;;;;;;5052848;28;20017;-89
2022/11/30 07:53:14;;;;;;;24.10;16.50;;;;;;;;;;5053166;28;20044;-89
2022/11/30 07:55:40;;;;;;;21.17;14.38;;;;;;;;;;5052618;28;20025;-90
2022/11/30 07:58:06;;;;;;;23.25;15.05;;;;;;;;;;5053047;28;20029;-89
2022/11/30 08:00:32;;;;;;;24.30;14.85;;;;;;;;;;5053399;28;20033;-90
2022/11/30 08:02:58;;;;;;;21.52;14.27;;;;;;;;;;5053101;28;20120;-90
2022/11/30 08:05:24;;;;;;;23.48;15.25;;;;;;;;;;5053357;28;20028;-90
2022/11/30 08:07:51;;;;;;;24.63;15.05;;;;;;;;;;5052441;28;20565;-94
2022/11/30 08:10:18;;;;;;;21.45;14.38;;;;;;;;;;5035969;28;20029;-90
2022/11/30 08:12:44;;;;;;;24.98;15.77;;;;;;;;;;5052362;28;20534;-89
2022/11/30 08:15:10;;;;;;;23.48;15.13;;;;;;;;;;5056438;28;20064;-89
2022/11/30 08:17:36;;;;;;;23.15;15.27;;;;;;;;;;5056238;28;20033;-87
2022/11/30 08:20:02;;;;;;;23.85;15.10;;;;;;;;;;5056085;28;20082;-86
2022/11/30 08:22:28;;;;;;;22.50;15.27;;;;;;;;;;5058027;28;20103;-87
2022/11/30 08:24:54;;;;;;;21.88;14.85;;;;;;;;;;5056270;28;20116;-90
2022/11/30 08:27:21;;;;;;;21.17;14.18;;;;;;;;;;5056240;28;20033;-89
2022/11/30 08:29:47;;;;;;;20.00;14.23;;;;;;;;;;5056143;28;20051;-88
2022/11/30 08:32:13;;;;;;;18.67;13.20;;;;;;;;;;5055582;28;20032;-88
2022/11/30 08:34:39;;;;;;;17.67;12.65;;;;;;;;;;5055860;28;20080;-89
2022/11/30 08:37:05;;;;;;;18.58;12.75;;;;;;;;;;5056166;28;20567;-90
2022/11/30 08:39:41;;;;;;;19.10;13.25;;;;;;;;;;5056409;28;20029;-92
2022/11/30 16:41:44;;;;;;;26.48;16.50;;;;;;;;;;5566242;23;20053;-96
2022/11/30 16:46:59;;;;;;;;;;;;;;;;;;4942140;23;19946;-94
2022/11/30 16:49:26;;;;;;;21.15;14.68;;;;;;;;;;4870975;29;19907;-90
2022/11/30 16:51:55;;;;;;;26.75;15.95;;;;;;;;;;4867194;29;20041;-93
2022/11/30 16:54:21;;;;;;;23.08;14.75;;;;;;;;;;4872956;29;20037;-95
2022/11/30 16:56:47;;;;;;;22.92;14.43;;;;;;;;;;4872185;29;20483;-87
2022/11/30 16:59:14;;;;;;;20.42;14.07;;;;;;;;;;4867088;29;20036;-92
2022/11/30 17:01:51;;;;;;;25.45;15.63;;;;;;;;;;4872450;29;20044;-91
2022/11/30 17:04:29;;;;;;;23.70;15.73;;;;;;;;;;4885996;29;20035;-87
2022/11/30 17:06:56;;;;;;;31.70;18.85;;;;;;;;;;4868824;29;20017;-91
2022/11/30 17:09:22;;;;;;;26.48;17.15;;;;;;;;;;4874583;29;20053;-87
2022/11/30 17:11:52;;;;;;;31.67;18.38;;;;;;;;;;4869307;29;20474;-88
2022/11/30 17:14:19;;;;;;;28.17;18.05;;;;;;;;;;4880324;29;20112;-87
2022/11/30 17:16:45;;;;;;;24.40;16.40;;;;;;;;;;4877157;29;20072;-86
2022/11/30 17:19:11;;;;;;;22.58;15.40;;;;;;;;;;4872005;29;20474;-87
2022/11/30 17:21:38;;;;;;;23.67;16.15;;;;;;;;;;4886007;29;20085;-87
2022/11/30 17:24:05;;;;;;;22.58;15.43;;;;;;;;;;4878768;29;20041;-87
2022/11/30 17:26:31;;;;;;;23.30;15.10;;;;;;;;;;4888936;29;20036;-89
2022/11/30 17:28:57;;;;;;;24.75;14.85;;;;;;;;;;4880750;29;20048;-87
2022/11/30 17:31:23;;;;;;;25.60;17.38;;;;;;;;;;4874638;29;20544;-91
2022/11/30 17:33:50;;;;;;;25.05;15.65;;;;;;;;;;4885170;29;20035;-87
2022/11/30 17:36:17;;;;;;;29.60;19.10;;;;;;;;;;4884510;29;20064;-88
2022/11/30 17:38:44;;;;;;;27.00;17.20;;;;;;;;;;4884830;29;20083;-88
2022/11/30 17:41:14;;;;;;;24.85;15.93;;;;;;;;;;4884468;29;20040;-90
2022/11/30 17:43:40;;;;;;;26.80;16.92;;;;;;;;;;4884390;29;20029;-88
2022/11/30 17:46:07;;;;;;;23.23;15.73;;;;;;;;;;4883626;29;20044;-87
2022/11/30 17:48:33;;;;;;;27.23;16.95;;;;;;;;;;4884398;29;20033;-88
2022/11/30 17:51:00;;;;;;;30.83;17.42;;;;;;;;;;4884114;29;20025;-91
2022/11/30 17:53:26;;;;;;;26.10;16.55;;;;;;;;;;4885189;29;20032;-91
2022/11/30 17:56:01;;;;;;;28.25;17.10;;;;;;;;;;4884214;29;20044;-91
2022/11/30 17:58:27;;;;;;;26.73;15.93;;;;;;;;;;4884279;29;20056;-89
2022/11/30 18:00:53;;;;;;;22.55;15.38;;;;;;;;;;4884509;29;20036;-88
2022/11/30 18:03:19;;;;;;;24.58;14.18;;;;;;;;;;4900507;29;20048;-89
2022/11/30 18:05:45;;;;;;;23.65;15.88;;;;;;;;;;4884568;29;20043;-91
2022/11/30 18:08:11;;;;;;;27.63;18.17;;;;;;;;;;4884285;29;20032;-90
2022/11/30 18:10:42;;;;;;;30.02;18.45;;;;;;;;;;4884183;29;20497;-89
2022/11/30 18:13:08;;;;;;;29.10;18.63;;;;;;;;;;4884259;29;20032;-88
2022/11/30 18:15:34;;;;;;;32.00;20.40;;;;;;;;;;4884126;29;20024;-90
2022/11/30 18:18:01;;;;;;;35.80;23.27;;;;;;;;;;4883969;29;20052;-91
2022/11/30 18:20:28;;;;;;;38.50;23.95;;;;;;;;;;4883897;29;20036;-92
2022/11/30 18:22:54;;;;;;;44.85;24.02;;;;;;;;;;4900633;29;20036;-87
2022/11/30 18:25:21;;;;;;;40.15;24.90;;;;;;;;;;4883815;29;20394;-91
2022/11/30 18:27:47;;;;;;;45.45;26.75;;;;;;;;;;4884270;29;20036;-90
2022/11/30 18:30:13;;;;;;;46.80;28.42;;;;;;;;;;4884132;29;20025;-90
2022/11/30 18:32:39;;;;;;;49.17;29.55;;;;;;;;;;4891095;29;20422;-91
2022/11/30 18:35:06;;;;;;;50.90;29.75;;;;;;;;;;4899753;29;20036;-90
2022/11/30 18:37:33;;;;;;;45.20;27.70;;;;;;;;;;4896713;29;20076;-90
2022/11/30 18:39:59;;;;;;;42.45;25.55;;;;;;;;;;4884700;29;20056;-90
2022/11/30 18:42:25;;;;;;;40.03;23.90;;;;;;;;;;4883170;29;20032;-89
2022/11/30 18:44:51;;;;;;;34.90;21.73;;;;;;;;;;4883500;29;20033;-90
2022/11/30 18:47:17;;;;;;;46.85;28.20;;;;;;;;;;4880171;29;20053;-89
2022/11/30 18:49:44;;;;;;;39.75;25.15;;;;;;;;;;4880163;29;20455;-90
2022/11/30 18:52:10;;;;;;;41.60;26.00;;;;;;;;;;4881518;29;20032;-89
2022/11/30 18:54:36;;;;;;;30.27;19.38;;;;;;;;;;4880732;29;20033;-89
2022/11/30 18:57:02;;;;;;;41.35;23.88;;;;;;;;;;4881837;29;20029;-90
2022/11/30 18:59:28;;;;;;;37.30;24.02;;;;;;;;;;4880250;29;20060;-89
2022/11/30 19:01:54;;;;;;;51.45;32.20;;;;;;;;;;4881310;29;20044;-88
2022/11/30 19:04:23;;;;;;;39.65;24.88;;;;;;;;;;4869195;29;20434;-92
2022/11/30 19:06:49;;;;;;;37.67;21.52;;;;;;;;;;4878935;29;20040;-90
2022/11/30 19:09:17;;;;;;;33.67;21.88;;;;;;;;;;4864984;29;20479;-86
2022/11/30 19:11:43;;;;;;;33.20;20.50;;;;;;;;;;4863935;29;20053;-90
2022/11/30 19:14:12;;;;;;;30.63;20.30;;;;;;;;;;4864063;29;20029;-88
2022/11/30 19:16:38;;;;;;;30.02;19.30;;;;;;;;;;4880951;29;20029;-89
2022/11/30 19:19:06;;;;;;;29.80;18.42;;;;;;;;;;4880427;29;20049;-90
2022/11/30 19:21:32;;;;;;;29.85;18.27;;;;;;;;;;4871737;29;20037;-87
2022/11/30 19:23:58;;;;;;;31.77;20.05;;;;;;;;;;4880896;29;20033;-86
2022/11/30 19:26:26;;;;;;;26.67;17.77;;;;;;;;;;4872973;29;20036;-91
2022/11/30 19:28:53;;;;;;;28.40;17.83;;;;;;;;;;4869546;29;20040;-90
2022/11/30 19:31:20;;;;;;;24.80;16.25;;;;;;;;;;4880162;29;20053;-92
2022/11/30 19:33:48;;;;;;;23.92;15.43;;;;;;;;;;4866388;29;20515;-87
2022/11/30 19:36:16;;;;;;;22.50;14.85;;;;;;;;;;4866127;29;20371;-88
2022/11/30 19:38:42;;;;;;;22.40;15.38;;;;;;;;;;4863857;29;20037;-93
2022/11/30 19:41:09;;;;;;;26.10;15.90;;;;;;;;;;4863310;29;20071;-90
2022/11/30 19:43:36;;;;;;;23.80;15.27;;;;;;;;;;4874086;29;20041;-90
2022/11/30 19:46:05;;;;;;;24.67;16.05;;;;;;;;;;4862973;29;20104;-87
2022/11/30 19:48:31;;;;;;;24.30;16.58;;;;;;;;;;4873720;29;20120;-92
2022/11/30 19:50:57;;;;;;;27.67;16.08;;;;;;;;;;4877739;29;20052;-93
2022/11/30 19:53:23;;;;;;;26.35;17.00;;;;;;;;;;4873085;29;20050;-89
2022/11/30 19:55:49;;;;;;;23.83;16.42;;;;;;;;;;4871480;29;20033;-93
2022/11/30 19:58:16;;;;;;;25.52;15.65;;;;;;;;;;4864190;29;20081;-93
2022/11/30 20:00:44;;;;;;;24.90;15.80;;;;;;;;;;4874317;29;20098;-92
2022/11/30 20:03:10;;;;;;;25.27;16.88;;;;;;;;;;4878743;29;20135;-88
2022/11/30 20:05:37;;;;;;;24.83;16.20;;;;;;;;;;4868274;29;20069;-89
2022/11/30 20:08:03;;;;;;;24.90;16.00;;;;;;;;;;4876432;29;20085;-84
2022/11/30 20:10:30;;;;;;;35.15;21.88;;;;;;;;;;4869899;29;20052;-93
2022/11/30 20:12:56;;;;;;;37.95;22.70;;;;;;;;;;4874234;29;20402;-90
2022/11/30 20:15:22;;;;;;;36.42;22.17;;;;;;;;;;4881988;29;20061;-89
2022/11/30 20:17:48;;;;;;;37.65;21.30;;;;;;;;;;4882420;29;20489;-90
2022/11/30 20:20:14;;;;;;;33.28;20.88;;;;;;;;;;4882094;29;20029;-85
2022/11/30 20:22:40;;;;;;;36.70;21.13;;;;;;;;;;4881954;29;20040;-91
2022/11/30 20:25:06;;;;;;;35.42;21.83;;;;;;;;;;4882926;29;20092;-92
2022/11/30 20:27:34;;;;;;;40.60;23.50;;;;;;;;;;4882550;29;20126;-93
2022/11/30 20:30:00;;;;;;;43.47;25.35;;;;;;;;;;4882144;29;20057;-85
2022/11/30 20:32:27;;;;;;;36.53;23.45;;;;;;;;;;4881589;29;20081;-84
2022/11/30 20:34:53;;;;;;;41.88;24.50;;;;;;;;;;4881554;29;20067;-92
2022/11/30 20:37:19;;;;;;;42.13;25.30;;;;;;;;;;4881749;29;20120;-91
2022/11/30 20:39:45;;;;;;;42.58;24.83;;;;;;;;;;4881754;29;20025;-93
2022/11/30 20:42:11;;;;;;;46.30;25.33;;;;;;;;;;4881303;29;20418;-92
2022/11/30 20:44:38;;;;;;;42.72;25.23;;;;;;;;;;4881139;29;20025;-85
2022/11/30 20:47:04;;;;;;;41.83;24.05;;;;;;;;;;4881444;29;20074;-90
2022/11/30 20:49:30;;;;;;;51.25;26.50;;;;;;;;;;4882110;29;20111;-90
2022/11/30 20:51:56;;;;;;;51.13;26.42;;;;;;;;;;4881440;29;20063;-84
2022/11/30 20:54:23;;;;;;;49.63;25.55;;;;;;;;;;4881138;29;20044;-84
2022/11/30 20:56:52;;;;;;;42.47;24.08;;;;;;;;;;4882460;29;20037;-85
2022/11/30 20:59:22;;;;;;;45.22;24.65;;;;;;;;;;4870697;29;20033;-87
2022/11/30 21:01:48;;;;;;;43.88;24.48;;;;;;;;;;4881226;29;20064;-89
2022/11/30 21:04:14;;;;;;;44.47;24.60;;;;;;;;;;4870217;29;20124;-91
2022/11/30 21:06:44;;;;;;;43.47;24.27;;;;;;;;;;4865891;29;20482;-89
2022/11/30 21:09:11;;;;;;;44.10;26.35;;;;;;;;;;4865214;29;20033;-85
2022/11/30 21:11:37;;;;;;;49.83;29.52;;;;;;;;;;4864824;29;20124;-87
2022/11/30 21:14:03;;;;;;;49.63;28.90;;;;;;;;;;4865092;29;20521;-85
2022/11/30 21:16:29;;;;;;;45.10;27.45;;;;;;;;;;4865069;29;20029;-87
2022/11/30 21:18:57;;;;;;;52.53;28.70;;;;;;;;;;4865087;29;20479;-87
2022/11/30 21:21:24;;;;;;;45.33;27.63;;;;;;;;;;4864670;29;20053;-86
2022/11/30 21:23:50;;;;;;;49.15;28.40;;;;;;;;;;4865635;29;20029;-88
2022/11/30 21:26:18;;;;;;;45.30;27.27;;;;;;;;;;4885096;29;20848;-87
2022/11/30 21:28:45;;;;;;;55.35;27.52;;;;;;;;;;4865692;29;20052;-92
2022/11/30 21:31:12;;;;;;;56.67;29.80;;;;;;;;;;4865074;29;20391;-86
2022/11/30 21:33:38;;;;;;;55.58;29.80;;;;;;;;;;4865452;29;20033;-86
2022/11/30 21:36:05;;;;;;;53.38;28.05;;;;;;;;;;4865467;29;20026;-89
2022/11/30 21:38:32;;;;;;;50.97;28.50;;;;;;;;;;4865040;29;20036;-87
2022/11/30 21:40:58;;;;;;;49.58;26.67;;;;;;;;;;4864994;29;20165;-86
2022/11/30 21:43:25;;;;;;;51.25;26.80;;;;;;;;;;4864990;29;20406;-87
2022/11/30 21:46:01;;;;;;;47.88;26.05;;;;;;;;;;4865141;29;20136;-86
2022/11/30 21:48:28;;;;;;;47.50;26.67;;;;;;;;;;4865331;29;20048;-92
2022/11/30 21:51:01;;;;;;;51.03;28.85;;;;;;;;;;4865171;29;20145;-90
2022/11/30 21:53:29;;;;;;;43.78;24.90;;;;;;;;;;4864869;29;20029;-86
2022/11/30 21:55:56;;;;;;;35.90;20.85;;;;;;;;;;4865140;29;20037;-87
2022/11/30 21:58:22;;;;;;;35.00;19.83;;;;;;;;;;4864795;29;20037;-85
2022/11/30 22:00:58;;;;;;;33.03;20.27;;;;;;;;;;4865547;29;20049;-88
2022/11/30 22:03:24;;;;;;;42.13;24.83;;;;;;;;;;4864671;29;20112;-88
2022/11/30 22:06:17;;;;;;;45.40;25.40;;;;;;;;;;4864737;29;20033;-91
2022/11/30 22:08:43;;;;;;;44.40;24.38;;;;;;;;;;4863102;29;20077;-86
2022/11/30 22:11:10;;;;;;;41.63;24.63;;;;;;;;;;4864606;29;20032;-91
2022/11/30 22:13:36;;;;;;;40.63;22.63;;;;;;;;;;4865029;29;20033;-90
2022/11/30 22:16:06;;;;;;;40.92;23.20;;;;;;;;;;4864844;29;20035;-86
2022/11/30 22:18:32;;;;;;;41.25;24.48;;;;;;;;;;4864590;29;20135;-87
2022/11/30 22:21:05;;;;;;;34.08;20.33;;;;;;;;;;4864813;29;20032;-89
2022/11/30 22:23:32;;;;;;;30.48;16.95;;;;;;;;;;4864655;29;20115;-90
2022/11/30 22:26:12;;;;;;;28.15;14.55;;;;;;;;;;4864524;29;20053;-91